sensor_id;sensor_type;location;lat;lon;timestamp;temperature;humidity
25568;DHT22;13455;51.480;7.594;2023-06-14T00:03:31;19.00;65.30
25568;DHT22;13455;51.480;7.594;2023-06-14T00:05:57;19.30;69.30
25568;DHT22;13455;51.480;7.594;2023-06-14T00:15:42;19.00;62.80
25568;DHT22;13455;51.480;7.594;2023-06-14T00:27:55;18.70;64.30
25568;DHT22;13455;51.480;7.594;2023-06-14T00:49:51;18.40;65.40
25568;DHT22;13455;51.480;7.594;2023-06-14T00:52:17;18.40;66.10
25568;DHT22;13455;51.480;7.594;2023-06-14T00:54:43;18.30;66.00
25568;DHT22;13455;51.480;7.594;2023-06-14T00:57:10;18.30;66.20
25568;DHT22;13455;51.480;7.594;2023-06-14T00:59:43;18.30;66.20
25568;DHT22;13455;51.480;7.594;2023-06-14T01:02:09;18.30;66.20
25568;DHT22;13455;51.480;7.594;2023-06-14T01:04:35;18.20;66.20
25568;DHT22;13455;51.480;7.594;2023-06-14T01:07:13;18.20;66.20
25568;DHT22;13455;51.480;7.594;2023-06-14T01:14:50;18.20;66.30
25568;DHT22;13455;51.480;7.594;2023-06-14T01:24:38;18.00;66.90
25568;DHT22;13455;51.480;7.594;2023-06-14T01:27:05;18.00;67.90
25568;DHT22;13455;51.480;7.594;2023-06-14T01:29:32;17.90;68.00
25568;DHT22;13455;51.480;7.594;2023-06-14T01:31:59;17.80;67.90
25568;DHT22;13455;51.480;7.594;2023-06-14T01:34:25;18.00;68.40
25568;DHT22;13455;51.480;7.594;2023-06-14T01:41:45;17.70;68.50
25568;DHT22;13455;51.480;7.594;2023-06-14T01:53:56;17.60;69.40
25568;DHT22;13455;51.480;7.594;2023-06-14T01:56:22;17.50;70.00
25568;DHT22;13455;51.480;7.594;2023-06-14T01:58:49;17.50;70.60
25568;DHT22;13455;51.480;7.594;2023-06-14T02:01:15;17.30;71.30
25568;DHT22;13455;51.480;7.594;2023-06-14T02:03:41;17.20;71.80
25568;DHT22;13455;51.480;7.594;2023-06-14T02:06:07;17.20;72.20
25568;DHT22;13455;51.480;7.594;2023-06-14T02:08:33;17.10;73.00
25568;DHT22;13455;51.480;7.594;2023-06-14T02:10:59;17.10;72.90
25568;DHT22;13455;51.480;7.594;2023-06-14T02:13:24;17.10;74.10
25568;DHT22;13455;51.480;7.594;2023-06-14T02:15:50;17.00;74.60
25568;DHT22;13455;51.480;7.594;2023-06-14T02:18:18;17.00;75.10
25568;DHT22;13455;51.480;7.594;2023-06-14T02:42:43;16.50;82.80
25568;DHT22;13455;51.480;7.594;2023-06-14T03:12:04;16.20;78.40
25568;DHT22;13455;51.480;7.594;2023-06-14T03:16:58;16.10;79.10
25568;DHT22;13455;51.480;7.594;2023-06-14T03:19:24;16.10;79.40
25568;DHT22;13455;51.480;7.594;2023-06-14T03:21:51;16.30;85.30
25568;DHT22;13455;51.480;7.594;2023-06-14T03:24:17;16.40;92.90
25568;DHT22;13455;51.480;7.594;2023-06-14T03:26:43;16.10;89.30
25568;DHT22;13455;51.480;7.594;2023-06-14T03:29:08;16.10;85.90
25568;DHT22;13455;51.480;7.594;2023-06-14T03:31:34;16.10;88.90
25568;DHT22;13455;51.480;7.594;2023-06-14T03:41:21;16.00;99.90
25568;DHT22;13455;51.480;7.594;2023-06-14T03:43:47;16.30;98.30
25568;DHT22;13455;51.480;7.594;2023-06-14T03:46:12;16.30;99.80
25568;DHT22;13455;51.480;7.594;2023-06-14T03:48:38;16.30;93.80
25568;DHT22;13455;51.480;7.594;2023-06-14T03:51:04;15.90;81.30
25568;DHT22;13455;51.480;7.594;2023-06-14T03:53:30;16.00;82.20
25568;DHT22;13455;51.480;7.594;2023-06-14T03:55:56;16.10;82.50
25568;DHT22;13455;51.480;7.594;2023-06-14T04:00:48;16.00;86.80
25568;DHT22;13455;51.480;7.594;2023-06-14T04:05:41;15.90;83.20
25568;DHT22;13455;51.480;7.594;2023-06-14T04:08:10;16.20;97.80
25568;DHT22;13455;51.480;7.594;2023-06-14T04:10:35;16.20;99.00
25568;DHT22;13455;51.480;7.594;2023-06-14T04:13:01;16.60;99.90
25568;DHT22;13455;51.480;7.594;2023-06-14T04:25:19;16.50;99.90
25568;DHT22;13455;51.480;7.594;2023-06-14T04:27:44;16.80;99.90
25568;DHT22;13455;51.480;7.594;2023-06-14T04:30:12;16.60;99.90
25568;DHT22;13455;51.480;7.594;2023-06-14T04:32:38;16.50;99.90
25568;DHT22;13455;51.480;7.594;2023-06-14T04:35:08;16.50;99.70
25568;DHT22;13455;51.480;7.594;2023-06-14T04:37:34;16.60;98.60
25568;DHT22;13455;51.480;7.594;2023-06-14T04:40:00;16.50;97.70
25568;DHT22;13455;51.480;7.594;2023-06-14T04:42:26;16.90;98.10
25568;DHT22;13455;51.480;7.594;2023-06-14T04:44:56;16.80;98.40
25568;DHT22;13455;51.480;7.594;2023-06-14T04:47:22;16.90;98.50
25568;DHT22;13455;51.480;7.594;2023-06-14T04:49:50;16.80;99.90
25568;DHT22;13455;51.480;7.594;2023-06-14T04:57:12;16.80;99.90
25568;DHT22;13455;51.480;7.594;2023-06-14T04:59:40;17.30;99.90
25568;DHT22;13455;51.480;7.594;2023-06-14T05:02:05;17.20;99.90
25568;DHT22;13455;51.480;7.594;2023-06-14T05:44:09;18.00;99.40
25568;DHT22;13455;51.480;7.594;2023-06-14T05:46:34;18.20;99.70
25568;DHT22;13455;51.480;7.594;2023-06-14T05:49:00;18.40;94.30
25568;DHT22;13455;51.480;7.594;2023-06-14T05:51:25;18.10;94.00
25568;DHT22;13455;51.480;7.594;2023-06-14T05:53:51;18.40;95.00
25568;DHT22;13455;51.480;7.594;2023-06-14T05:56:18;18.30;93.70
25568;DHT22;13455;51.480;7.594;2023-06-14T05:58:44;18.50;92.10
25568;DHT22;13455;51.480;7.594;2023-06-14T06:01:10;18.60;91.00
25568;DHT22;13455;51.480;7.594;2023-06-14T06:03:36;18.70;91.40
25568;DHT22;13455;51.480;7.594;2023-06-14T06:06:02;18.70;92.30
25568;DHT22;13455;51.480;7.594;2023-06-14T06:08:28;18.80;93.70
25568;DHT22;13455;51.480;7.594;2023-06-14T06:10:55;18.90;95.10
25568;DHT22;13455;51.480;7.594;2023-06-14T06:13:20;18.80;82.70
25568;DHT22;13455;51.480;7.594;2023-06-14T06:15:46;18.90;83.20
25568;DHT22;13455;51.480;7.594;2023-06-14T06:18:12;19.00;83.40
25568;DHT22;13455;51.480;7.594;2023-06-14T06:20:38;19.10;84.00
25568;DHT22;13455;51.480;7.594;2023-06-14T06:23:03;19.00;82.70
25568;DHT22;13455;51.480;7.594;2023-06-14T06:25:29;19.00;82.30
25568;DHT22;13455;51.480;7.594;2023-06-14T06:27:57;19.10;81.70
25568;DHT22;13455;51.480;7.594;2023-06-14T06:30:24;19.10;81.20
25568;DHT22;13455;51.480;7.594;2023-06-14T06:32:50;19.20;81.60
25568;DHT22;13455;51.480;7.594;2023-06-14T06:35:16;19.20;82.10
25568;DHT22;13455;51.480;7.594;2023-06-14T06:37:42;19.30;81.00
25568;DHT22;13455;51.480;7.594;2023-06-14T06:40:08;19.40;81.10
25568;DHT22;13455;51.480;7.594;2023-06-14T06:42:34;19.40;80.80
25568;DHT22;13455;51.480;7.594;2023-06-14T06:45:00;19.60;91.20
25568;DHT22;13455;51.480;7.594;2023-06-14T06:47:26;19.90;89.40
25568;DHT22;13455;51.480;7.594;2023-06-14T06:52:18;19.90;91.70
25568;DHT22;13455;51.480;7.594;2023-06-14T06:57:10;19.80;87.50
25568;DHT22;13455;51.480;7.594;2023-06-14T06:59:36;19.80;92.90
25568;DHT22;13455;51.480;7.594;2023-06-14T07:02:02;19.90;93.80
25568;DHT22;13455;51.480;7.594;2023-06-14T07:06:54;19.90;78.00
25568;DHT22;13455;51.480;7.594;2023-06-14T07:09:20;20.00;77.30
25568;DHT22;13455;51.480;7.594;2023-06-14T07:11:47;20.40;79.50
25568;DHT22;13455;51.480;7.594;2023-06-14T07:14:13;20.20;79.00
25568;DHT22;13455;51.480;7.594;2023-06-14T07:16:38;20.30;77.50
25568;DHT22;13455;51.480;7.594;2023-06-14T07:19:05;20.30;77.30
25568;DHT22;13455;51.480;7.594;2023-06-14T07:21:30;20.10;76.20
25568;DHT22;13455;51.480;7.594;2023-06-14T07:23:56;20.20;77.30
25568;DHT22;13455;51.480;7.594;2023-06-14T07:26:23;20.20;77.50
25568;DHT22;13455;51.480;7.594;2023-06-14T07:28:48;20.30;78.20
25568;DHT22;13455;51.480;7.594;2023-06-14T07:31:15;20.40;77.30
25568;DHT22;13455;51.480;7.594;2023-06-14T07:33:42;20.50;76.70
25568;DHT22;13455;51.480;7.594;2023-06-14T07:36:08;20.40;76.30
25568;DHT22;13455;51.480;7.594;2023-06-14T07:38:34;20.40;75.40
25568;DHT22;13455;51.480;7.594;2023-06-14T07:41:00;20.60;91.30
25568;DHT22;13455;51.480;7.594;2023-06-14T07:43:26;20.30;90.60
25568;DHT22;13455;51.480;7.594;2023-06-14T07:45:51;20.50;90.40
25568;DHT22;13455;51.480;7.594;2023-06-14T07:48:18;20.60;79.10
25568;DHT22;13455;51.480;7.594;2023-06-14T07:50:43;20.50;72.90
25568;DHT22;13455;51.480;7.594;2023-06-14T07:55:35;20.50;70.90
25568;DHT22;13455;51.480;7.594;2023-06-14T08:44:31;21.80;60.60
25568;DHT22;13455;51.480;7.594;2023-06-14T08:46:57;21.80;61.00
25568;DHT22;13455;51.480;7.594;2023-06-14T08:49:25;22.00;61.90
25568;DHT22;13455;51.480;7.594;2023-06-14T08:51:57;22.10;62.00
25568;DHT22;13455;51.480;7.594;2023-06-14T08:54:25;22.30;61.40
25568;DHT22;13455;51.480;7.594;2023-06-14T08:56:53;22.50;62.10
25568;DHT22;13455;51.480;7.594;2023-06-14T08:59:25;22.60;60.30
25568;DHT22;13455;51.480;7.594;2023-06-14T09:01:52;22.60;60.30
25568;DHT22;13455;51.480;7.594;2023-06-14T09:04:23;22.70;61.70
25568;DHT22;13455;51.480;7.594;2023-06-14T09:06:49;22.80;61.90
25568;DHT22;13455;51.480;7.594;2023-06-14T09:09:20;22.80;61.00
25568;DHT22;13455;51.480;7.594;2023-06-14T09:11:46;22.80;61.40
25568;DHT22;13455;51.480;7.594;2023-06-14T09:14:11;22.80;62.00
25568;DHT22;13455;51.480;7.594;2023-06-14T09:16:37;22.90;62.30
25568;DHT22;13455;51.480;7.594;2023-06-14T09:19:03;23.00;62.60
25568;DHT22;13455;51.480;7.594;2023-06-14T09:21:34;23.10;62.50
25568;DHT22;13455;51.480;7.594;2023-06-14T09:24:01;23.30;63.10
25568;DHT22;13455;51.480;7.594;2023-06-14T09:31:21;23.40;59.20
25568;DHT22;13455;51.480;7.594;2023-06-14T09:33:50;23.20;59.30
25568;DHT22;13455;51.480;7.594;2023-06-14T09:36:23;23.30;58.60
25568;DHT22;13455;51.480;7.594;2023-06-14T09:38:57;23.40;58.60
25568;DHT22;13455;51.480;7.594;2023-06-14T09:41:33;23.60;59.50
25568;DHT22;13455;51.480;7.594;2023-06-14T09:44:00;23.70;59.50
25568;DHT22;13455;51.480;7.594;2023-06-14T09:46:28;23.90;59.50
25568;DHT22;13455;51.480;7.594;2023-06-14T09:48:55;23.90;60.30
25568;DHT22;13455;51.480;7.594;2023-06-14T09:51:22;23.90;57.70
25568;DHT22;13455;51.480;7.594;2023-06-14T09:53:49;24.00;58.50
25568;DHT22;13455;51.480;7.594;2023-06-14T09:58:45;24.30;57.40
25568;DHT22;13455;51.480;7.594;2023-06-14T10:01:11;24.30;57.90
25568;DHT22;13455;51.480;7.594;2023-06-14T10:03:39;24.30;57.40
25568;DHT22;13455;51.480;7.594;2023-06-14T10:06:07;24.40;59.30
25568;DHT22;13455;51.480;7.594;2023-06-14T10:08:36;24.30;57.10
25568;DHT22;13455;51.480;7.594;2023-06-14T10:11:02;24.40;58.40
25568;DHT22;13455;51.480;7.594;2023-06-14T10:23:25;24.60;57.10
25568;DHT22;13455;51.480;7.594;2023-06-14T10:25:58;24.80;57.10
25568;DHT22;13455;51.480;7.594;2023-06-14T10:31:08;25.10;56.30
25568;DHT22;13455;51.480;7.594;2023-06-14T10:33:56;25.20;57.40
25568;DHT22;13455;51.480;7.594;2023-06-14T10:36:25;25.30;56.20
25568;DHT22;13455;51.480;7.594;2023-06-14T10:39:17;25.40;55.60
25568;DHT22;13455;51.480;7.594;2023-06-14T10:41:52;24.90;55.30
25568;DHT22;13455;51.480;7.594;2023-06-14T10:46:48;25.60;64.20
25568;DHT22;13455;51.480;7.594;2023-06-14T10:49:17;25.60;78.60
25568;DHT22;13455;51.480;7.594;2023-06-14T10:51:50;25.80;90.80
25568;DHT22;13455;51.480;7.594;2023-06-14T10:54:16;25.80;66.00
25568;DHT22;13455;51.480;7.594;2023-06-14T10:59:16;26.10;58.90
25568;DHT22;13455;51.480;7.594;2023-06-14T11:04:52;26.30;63.30
25568;DHT22;13455;51.480;7.594;2023-06-14T11:17:51;26.40;53.90
25568;DHT22;13455;51.480;7.594;2023-06-14T11:20:19;26.60;54.60
25568;DHT22;13455;51.480;7.594;2023-06-14T11:22:45;26.70;57.90
25568;DHT22;13455;51.480;7.594;2023-06-14T11:25:14;26.70;53.20
25568;DHT22;13455;51.480;7.594;2023-06-14T11:27:42;26.70;53.50
25568;DHT22;13455;51.480;7.594;2023-06-14T11:30:08;26.80;52.70
25568;DHT22;13455;51.480;7.594;2023-06-14T11:32:37;26.70;53.10
25568;DHT22;13455;51.480;7.594;2023-06-14T11:37:31;26.80;52.70
25568;DHT22;13455;51.480;7.594;2023-06-14T11:39:59;26.90;53.60
25568;DHT22;13455;51.480;7.594;2023-06-14T11:42:26;27.10;52.80
25568;DHT22;13455;51.480;7.594;2023-06-14T11:44:53;27.30;53.50
25568;DHT22;13455;51.480;7.594;2023-06-14T11:47:19;27.40;52.90
25568;DHT22;13455;51.480;7.594;2023-06-14T11:49:45;27.40;52.60
25568;DHT22;13455;51.480;7.594;2023-06-14T11:52:11;27.40;52.60
25568;DHT22;13455;51.480;7.594;2023-06-14T11:54:37;27.50;52.20
25568;DHT22;13455;51.480;7.594;2023-06-14T11:57:04;27.40;78.00
25568;DHT22;13455;51.480;7.594;2023-06-14T12:01:58;28.00;93.60
25568;DHT22;13455;51.480;7.594;2023-06-14T12:06:50;28.20;50.20
25568;DHT22;13455;51.480;7.594;2023-06-14T12:09:18;28.20;50.50
25568;DHT22;13455;51.480;7.594;2023-06-14T12:11:45;28.20;50.80
25568;DHT22;13455;51.480;7.594;2023-06-14T12:14:10;28.20;50.60
25568;DHT22;13455;51.480;7.594;2023-06-14T12:16:38;28.20;63.40
25568;DHT22;13455;51.480;7.594;2023-06-14T12:19:26;28.40;50.70
25568;DHT22;13455;51.480;7.594;2023-06-14T12:21:51;28.50;50.20
25568;DHT22;13455;51.480;7.594;2023-06-14T12:24:17;28.50;50.30
25568;DHT22;13455;51.480;7.594;2023-06-14T12:26:43;28.50;52.40
25568;DHT22;13455;51.480;7.594;2023-06-14T12:31:35;28.60;48.80
25568;DHT22;13455;51.480;7.594;2023-06-14T12:34:01;28.80;49.60
25568;DHT22;13455;51.480;7.594;2023-06-14T12:38:53;28.50;48.60
25568;DHT22;13455;51.480;7.594;2023-06-14T12:41:22;28.30;48.80
25568;DHT22;13455;51.480;7.594;2023-06-14T12:43:48;28.50;50.40
25568;DHT22;13455;51.480;7.594;2023-06-14T12:46:14;28.50;48.90
25568;DHT22;13455;51.480;7.594;2023-06-14T12:48:39;28.70;49.30
25568;DHT22;13455;51.480;7.594;2023-06-14T12:51:05;28.70;49.30
25568;DHT22;13455;51.480;7.594;2023-06-14T12:53:31;28.60;48.50
25568;DHT22;13455;51.480;7.594;2023-06-14T12:55:56;28.90;49.10
25568;DHT22;13455;51.480;7.594;2023-06-14T12:58:22;29.00;49.20
25568;DHT22;13455;51.480;7.594;2023-06-14T13:03:15;29.00;47.50
25568;DHT22;13455;51.480;7.594;2023-06-14T13:05:41;29.00;48.80
25568;DHT22;13455;51.480;7.594;2023-06-14T13:08:07;28.40;86.30
25568;DHT22;13455;51.480;7.594;2023-06-14T13:10:36;29.00;70.90
25568;DHT22;13455;51.480;7.594;2023-06-14T13:13:01;29.20;73.60
25568;DHT22;13455;51.480;7.594;2023-06-14T13:17:54;29.70;46.10
25568;DHT22;13455;51.480;7.594;2023-06-14T13:20:20;29.60;46.30
25568;DHT22;13455;51.480;7.594;2023-06-14T13:22:46;29.70;46.70
25568;DHT22;13455;51.480;7.594;2023-06-14T13:25:12;29.60;47.10
25568;DHT22;13455;51.480;7.594;2023-06-14T13:27:37;29.50;46.40
25568;DHT22;13455;51.480;7.594;2023-06-14T13:30:03;29.50;47.10
25568;DHT22;13455;51.480;7.594;2023-06-14T13:32:31;29.70;46.90
25568;DHT22;13455;51.480;7.594;2023-06-14T13:34:57;29.70;46.60
25568;DHT22;13455;51.480;7.594;2023-06-14T13:37:23;29.60;46.50
25568;DHT22;13455;51.480;7.594;2023-06-14T13:39:48;29.60;46.70
25568;DHT22;13455;51.480;7.594;2023-06-14T13:42:14;29.60;46.00
25568;DHT22;13455;51.480;7.594;2023-06-14T13:44:39;29.80;44.90
25568;DHT22;13455;51.480;7.594;2023-06-14T13:47:06;29.80;45.80
25568;DHT22;13455;51.480;7.594;2023-06-14T13:49:31;30.00;46.50
25568;DHT22;13455;51.480;7.594;2023-06-14T13:51:57;30.40;44.90
25568;DHT22;13455;51.480;7.594;2023-06-14T13:54:23;30.40;45.50
25568;DHT22;13455;51.480;7.594;2023-06-14T13:59:14;30.80;44.70
25568;DHT22;13455;51.480;7.594;2023-06-14T14:01:43;30.80;45.10
25568;DHT22;13455;51.480;7.594;2023-06-14T14:04:09;30.90;45.10
25568;DHT22;13455;51.480;7.594;2023-06-14T14:06:34;31.20;44.20
25568;DHT22;13455;51.480;7.594;2023-06-14T14:09:00;31.20;43.40
25568;DHT22;13455;51.480;7.594;2023-06-14T14:35:56;31.20;49.00
25568;DHT22;13455;51.480;7.594;2023-06-14T14:38:21;31.30;49.60
25568;DHT22;13455;51.480;7.594;2023-06-14T14:40:47;31.10;42.70
25568;DHT22;13455;51.480;7.594;2023-06-14T14:43:13;31.00;42.70
25568;DHT22;13455;51.480;7.594;2023-06-14T14:48:05;31.70;41.40
25568;DHT22;13455;51.480;7.594;2023-06-14T14:50:31;31.80;42.40
25568;DHT22;13455;51.480;7.594;2023-06-14T14:55:22;32.00;41.30
25568;DHT22;13455;51.480;7.594;2023-06-14T14:57:48;32.10;41.80
25568;DHT22;13455;51.480;7.594;2023-06-14T15:00:14;31.90;44.20
25568;DHT22;13455;51.480;7.594;2023-06-14T15:02:40;32.30;43.20
25568;DHT22;13455;51.480;7.594;2023-06-14T15:17:18;32.90;38.80
25568;DHT22;13455;51.480;7.594;2023-06-14T15:19:45;32.50;39.60
25568;DHT22;13455;51.480;7.594;2023-06-14T15:22:11;32.60;39.30
25568;DHT22;13455;51.480;7.594;2023-06-14T15:24:37;32.50;38.90
25568;DHT22;13455;51.480;7.594;2023-06-14T15:27:03;32.90;52.10
25568;DHT22;13455;51.480;7.594;2023-06-14T15:34:22;32.80;37.00
25568;DHT22;13455;51.480;7.594;2023-06-14T15:36:48;32.70;38.00
25568;DHT22;13455;51.480;7.594;2023-06-14T15:39:13;32.90;38.70
25568;DHT22;13455;51.480;7.594;2023-06-14T15:41:39;33.00;38.70
25568;DHT22;13455;51.480;7.594;2023-06-14T15:44:05;33.10;38.20
25568;DHT22;13455;51.480;7.594;2023-06-14T15:46:30;33.10;42.70
25568;DHT22;13455;51.480;7.594;2023-06-14T15:48:56;33.40;42.10
25568;DHT22;13455;51.480;7.594;2023-06-14T15:51:22;33.70;38.40
25568;DHT22;13455;51.480;7.594;2023-06-14T15:56:13;34.40;37.40
25568;DHT22;13455;51.480;7.594;2023-06-14T15:58:39;34.30;36.50
25568;DHT22;13455;51.480;7.594;2023-06-14T16:01:04;34.10;36.20
25568;DHT22;13455;51.480;7.594;2023-06-14T16:03:30;34.50;37.20
25568;DHT22;13455;51.480;7.594;2023-06-14T16:13:14;34.90;36.20
25568;DHT22;13455;51.480;7.594;2023-06-14T16:15:39;35.00;36.80
25568;DHT22;13455;51.480;7.594;2023-06-14T16:18:05;34.90;37.70
25568;DHT22;13455;51.480;7.594;2023-06-14T16:42:26;34.30;58.00
25568;DHT22;13455;51.480;7.594;2023-06-14T16:52:11;33.90;68.60
25568;DHT22;13455;51.480;7.594;2023-06-14T16:54:37;33.60;55.80
25568;DHT22;13455;51.480;7.594;2023-06-14T16:57:03;33.30;41.20
25568;DHT22;13455;51.480;7.594;2023-06-14T16:59:28;33.20;43.50
25568;DHT22;13455;51.480;7.594;2023-06-14T17:19:04;32.50;38.50
25568;DHT22;13455;51.480;7.594;2023-06-14T17:21:31;32.40;39.10
25568;DHT22;13455;51.480;7.594;2023-06-14T17:28:51;30.30;41.60
25568;DHT22;13455;51.480;7.594;2023-06-14T17:31:16;30.20;42.00
25568;DHT22;13455;51.480;7.594;2023-06-14T17:36:08;29.30;42.20
25568;DHT22;13455;51.480;7.594;2023-06-14T17:38:34;29.10;44.90
25568;DHT22;13455;51.480;7.594;2023-06-14T17:41:02;29.00;43.60
25568;DHT22;13455;51.480;7.594;2023-06-14T17:43:30;29.00;44.90
25568;DHT22;13455;51.480;7.594;2023-06-14T17:45:56;27.90;45.20
25568;DHT22;13455;51.480;7.594;2023-06-14T17:50:48;27.80;46.50
25568;DHT22;13455;51.480;7.594;2023-06-14T17:53:13;27.50;47.40
25568;DHT22;13455;51.480;7.594;2023-06-14T17:58:05;27.20;47.60
25568;DHT22;13455;51.480;7.594;2023-06-14T18:00:31;27.30;49.30
25568;DHT22;13455;51.480;7.594;2023-06-14T18:02:56;27.00;48.70
25568;DHT22;13455;51.480;7.594;2023-06-14T18:05:24;26.90;49.00
25568;DHT22;13455;51.480;7.594;2023-06-14T18:10:17;26.80;82.40
25568;DHT22;13455;51.480;7.594;2023-06-14T18:12:44;26.80;52.80
25568;DHT22;13455;51.480;7.594;2023-06-14T18:15:10;26.60;51.90
25568;DHT22;13455;51.480;7.594;2023-06-14T18:17:35;26.40;56.30
25568;DHT22;13455;51.480;7.594;2023-06-14T18:20:01;26.30;51.20
25568;DHT22;13455;51.480;7.594;2023-06-14T18:22:28;26.20;52.00
25568;DHT22;13455;51.480;7.594;2023-06-14T18:24:54;25.90;86.30
25568;DHT22;13455;51.480;7.594;2023-06-14T18:27:20;25.60;90.40
25568;DHT22;13455;51.480;7.594;2023-06-14T18:29:46;25.80;52.10
25568;DHT22;13455;51.480;7.594;2023-06-14T18:32:12;25.70;52.60
25568;DHT22;13455;51.480;7.594;2023-06-14T18:34:38;25.70;53.00
25568;DHT22;13455;51.480;7.594;2023-06-14T18:37:04;25.60;53.00
25568;DHT22;13455;51.480;7.594;2023-06-14T18:41:55;25.40;72.90
25568;DHT22;13455;51.480;7.594;2023-06-14T18:49:13;25.20;53.70
25568;DHT22;13455;51.480;7.594;2023-06-14T18:51:38;25.10;54.10
25568;DHT22;13455;51.480;7.594;2023-06-14T18:54:05;24.90;57.60
25568;DHT22;13455;51.480;7.594;2023-06-14T18:56:31;25.10;56.60
25568;DHT22;13455;51.480;7.594;2023-06-14T19:01:23;24.80;93.50
25568;DHT22;13455;51.480;7.594;2023-06-14T19:03:49;24.80;76.20
25568;DHT22;13455;51.480;7.594;2023-06-14T19:06:14;24.80;62.90
25568;DHT22;13455;51.480;7.594;2023-06-14T19:08:40;24.70;55.50
25568;DHT22;13455;51.480;7.594;2023-06-14T19:11:05;24.70;55.60
25568;DHT22;13455;51.480;7.594;2023-06-14T19:13:32;24.50;55.80
25568;DHT22;13455;51.480;7.594;2023-06-14T19:15:58;24.50;56.20
25568;DHT22;13455;51.480;7.594;2023-06-14T19:18:24;24.50;79.70
25568;DHT22;13455;51.480;7.594;2023-06-14T19:20:50;24.40;78.40
25568;DHT22;13455;51.480;7.594;2023-06-14T19:23:15;24.20;56.50
25568;DHT22;13455;51.480;7.594;2023-06-14T19:25:41;24.10;56.10
25568;DHT22;13455;51.480;7.594;2023-06-14T19:28:06;24.00;56.90
25568;DHT22;13455;51.480;7.594;2023-06-14T19:30:32;23.30;56.90
25568;DHT22;13455;51.480;7.594;2023-06-14T19:32:58;23.90;57.40
25568;DHT22;13455;51.480;7.594;2023-06-14T19:35:23;23.80;57.70
25568;DHT22;13455;51.480;7.594;2023-06-14T19:37:49;23.70;57.80
25568;DHT22;13455;51.480;7.594;2023-06-14T19:40:15;23.70;58.20
25568;DHT22;13455;51.480;7.594;2023-06-14T19:42:41;23.50;58.20
25568;DHT22;13455;51.480;7.594;2023-06-14T19:45:07;23.40;58.40
25568;DHT22;13455;51.480;7.594;2023-06-14T19:47:33;23.40;59.00
25568;DHT22;13455;51.480;7.594;2023-06-14T19:49:59;23.40;58.80
25568;DHT22;13455;51.480;7.594;2023-06-14T19:52:25;23.30;58.70
25568;DHT22;13455;51.480;7.594;2023-06-14T19:54:50;23.40;68.10
25568;DHT22;13455;51.480;7.594;2023-06-14T19:57:16;23.30;75.70
25568;DHT22;13455;51.480;7.594;2023-06-14T20:04:35;22.90;59.10
25568;DHT22;13455;51.480;7.594;2023-06-14T20:07:05;22.90;60.80
25568;DHT22;13455;51.480;7.594;2023-06-14T20:09:33;22.80;81.50
25568;DHT22;13455;51.480;7.594;2023-06-14T20:11:59;22.70;73.00
25568;DHT22;13455;51.480;7.594;2023-06-14T20:14:25;22.70;61.10
25568;DHT22;13455;51.480;7.594;2023-06-14T20:16:51;22.60;60.70
25568;DHT22;13455;51.480;7.594;2023-06-14T20:19:17;22.50;61.10
25568;DHT22;13455;51.480;7.594;2023-06-14T20:21:43;22.50;61.20
25568;DHT22;13455;51.480;7.594;2023-06-14T20:24:08;22.40;61.40
25568;DHT22;13455;51.480;7.594;2023-06-14T20:26:34;22.40;63.50
25568;DHT22;13455;51.480;7.594;2023-06-14T20:29:01;22.30;62.00
25568;DHT22;13455;51.480;7.594;2023-06-14T20:31:26;22.20;62.20
25568;DHT22;13455;51.480;7.594;2023-06-14T20:33:52;22.20;82.20
25568;DHT22;13455;51.480;7.594;2023-06-14T20:36:17;22.00;62.60
25568;DHT22;13455;51.480;7.594;2023-06-14T20:38:44;22.10;70.40
25568;DHT22;13455;51.480;7.594;2023-06-14T20:41:10;21.90;73.90
25568;DHT22;13455;51.480;7.594;2023-06-14T20:43:36;22.10;80.60
25568;DHT22;13455;51.480;7.594;2023-06-14T20:46:02;21.80;86.40
25568;DHT22;13455;51.480;7.594;2023-06-14T20:48:28;21.70;74.70
25568;DHT22;13455;51.480;7.594;2023-06-14T20:50:56;21.60;64.80
25568;DHT22;13455;51.480;7.594;2023-06-14T20:53:22;21.60;77.30
25568;DHT22;13455;51.480;7.594;2023-06-14T20:55:47;21.80;72.80
25568;DHT22;13455;51.480;7.594;2023-06-14T20:58:13;22.00;68.80
25568;DHT22;13455;51.480;7.594;2023-06-14T21:00:41;21.30;93.60
25568;DHT22;13455;51.480;7.594;2023-06-14T21:03:07;21.50;68.80
25568;DHT22;13455;51.480;7.594;2023-06-14T21:05:33;21.20;67.70
25568;DHT22;13455;51.480;7.594;2023-06-14T21:07:59;21.10;67.70
25568;DHT22;13455;51.480;7.594;2023-06-14T21:12:56;21.00;67.30
25568;DHT22;13455;51.480;7.594;2023-06-14T21:15:22;21.00;96.60
25568;DHT22;13455;51.480;7.594;2023-06-14T21:25:09;20.70;69.00
25568;DHT22;13455;51.480;7.594;2023-06-14T21:27:34;20.60;70.40
25568;DHT22;13455;51.480;7.594;2023-06-14T21:30:02;20.50;70.80
25568;DHT22;13455;51.480;7.594;2023-06-14T21:37:20;20.40;71.30
25568;DHT22;13455;51.480;7.594;2023-06-14T21:42:11;20.40;72.10
25568;DHT22;13455;51.480;7.594;2023-06-14T21:44:39;20.40;72.50
25568;DHT22;13455;51.480;7.594;2023-06-14T21:47:10;20.40;73.10
25568;DHT22;13455;51.480;7.594;2023-06-14T21:49:36;20.30;72.70
25568;DHT22;13455;51.480;7.594;2023-06-14T21:52:02;20.30;74.00
25568;DHT22;13455;51.480;7.594;2023-06-14T21:54:28;20.30;74.00
25568;DHT22;13455;51.480;7.594;2023-06-14T21:56:53;20.40;96.20
25568;DHT22;13455;51.480;7.594;2023-06-14T22:01:45;20.10;94.80
25568;DHT22;13455;51.480;7.594;2023-06-14T22:04:10;20.10;75.40
25568;DHT22;13455;51.480;7.594;2023-06-14T22:13:59;20.30;78.70
25568;DHT22;13455;51.480;7.594;2023-06-14T22:18:51;19.90;76.30
25568;DHT22;13455;51.480;7.594;2023-06-14T22:51:13;19.60;80.80
25568;DHT22;13455;51.480;7.594;2023-06-14T22:53:40;19.60;81.50
25568;DHT22;13455;51.480;7.594;2023-06-14T22:56:07;19.50;82.50
25568;DHT22;13455;51.480;7.594;2023-06-14T22:58:33;19.40;82.10
25568;DHT22;13455;51.480;7.594;2023-06-14T23:00:59;19.40;82.80
25568;DHT22;13455;51.480;7.594;2023-06-14T23:03:26;19.40;83.00
25568;DHT22;13455;51.480;7.594;2023-06-14T23:05:53;19.30;83.50
25568;DHT22;13455;51.480;7.594;2023-06-14T23:10:48;19.20;83.20
25568;DHT22;13455;51.480;7.594;2023-06-14T23:15:40;19.10;83.80
25568;DHT22;13455;51.480;7.594;2023-06-14T23:20:33;19.10;99.90
25568;DHT22;13455;51.480;7.594;2023-06-14T23:23:01;19.30;97.90
25568;DHT22;13455;51.480;7.594;2023-06-14T23:25:29;19.10;89.40
25568;DHT22;13455;51.480;7.594;2023-06-14T23:28:03;19.00;90.80
25568;DHT22;13455;51.480;7.594;2023-06-14T23:30:29;19.10;90.60
25568;DHT22;13455;51.480;7.594;2023-06-14T23:35:33;18.90;85.60
25568;DHT22;13455;51.480;7.594;2023-06-14T23:38:00;18.90;86.40
25568;DHT22;13455;51.480;7.594;2023-06-14T23:40:26;18.80;86.60
25568;DHT22;13455;51.480;7.594;2023-06-14T23:42:55;18.80;87.00
25568;DHT22;13455;51.480;7.594;2023-06-14T23:45:22;18.80;87.40